sensor_id;sensor_type;location;lat;lon;timestamp;temperature;humidity
64869;DHT22;51349;52.424;10.840;2024-01-10T00:00:42;-9.90;99.90
64869;DHT22;51349;52.424;10.840;2024-01-10T00:05:42;-10.00;99.90
64869;DHT22;51349;52.424;10.840;2024-01-10T00:10:43;-10.00;99.90
64869;DHT22;51349;52.424;10.840;2024-01-10T00:15:43;-9.70;99.90
64869;DHT22;51349;52.424;10.840;2024-01-10T00:20:44;-9.90;99.90
64869;DHT22;51349;52.424;10.840;2024-01-10T00:25:45;-9.90;99.90
64869;DHT22;51349;52.424;10.840;2024-01-10T00:30:46;-9.80;99.90
64869;DHT22;51349;52.424;10.840;2024-01-10T00:35:48;-9.80;99.90
64869;DHT22;51349;52.424;10.840;2024-01-10T00:40:49;-9.60;99.90
64869;DHT22;51349;52.424;10.840;2024-01-10T00:45:49;-9.70;99.90
64869;DHT22;51349;52.424;10.840;2024-01-10T00:50:50;-9.60;99.90
64869;DHT22;51349;52.424;10.840;2024-01-10T00:55:50;-9.60;99.90
64869;DHT22;51349;52.424;10.840;2024-01-10T01:00:51;-9.60;99.90
64869;DHT22;51349;52.424;10.840;2024-01-10T01:05:52;-9.50;99.90
64869;DHT22;51349;52.424;10.840;2024-01-10T01:10:53;-9.70;99.90
64869;DHT22;51349;52.424;10.840;2024-01-10T01:15:53;-9.60;99.90
64869;DHT22;51349;52.424;10.840;2024-01-10T01:20:54;-9.70;99.90
64869;DHT22;51349;52.424;10.840;2024-01-10T01:25:54;-9.70;99.90
64869;DHT22;51349;52.424;10.840;2024-01-10T01:30:55;-9.70;99.90
64869;DHT22;51349;52.424;10.840;2024-01-10T01:35:56;-9.60;99.90
64869;DHT22;51349;52.424;10.840;2024-01-10T01:40:56;-9.50;99.90
64869;DHT22;51349;52.424;10.840;2024-01-10T01:45:57;-9.50;99.90
64869;DHT22;51349;52.424;10.840;2024-01-10T01:51:01;-9.60;99.90
64869;DHT22;51349;52.424;10.840;2024-01-10T01:56:06;-9.70;99.90
64869;DHT22;51349;52.424;10.840;2024-01-10T02:01:08;-9.70;99.90
64869;DHT22;51349;52.424;10.840;2024-01-10T02:06:09;-9.80;99.90
64869;DHT22;51349;52.424;10.840;2024-01-10T02:11:10;-9.90;99.90
64869;DHT22;51349;52.424;10.840;2024-01-10T02:16:11;-9.80;99.90
64869;DHT22;51349;52.424;10.840;2024-01-10T02:21:12;-9.90;99.90
64869;DHT22;51349;52.424;10.840;2024-01-10T02:26:14;-9.80;99.90
64869;DHT22;51349;52.424;10.840;2024-01-10T02:31:14;-9.90;99.90
64869;DHT22;51349;52.424;10.840;2024-01-10T02:36:15;-9.90;99.90
64869;DHT22;51349;52.424;10.840;2024-01-10T02:41:16;-10.00;99.90
64869;DHT22;51349;52.424;10.840;2024-01-10T02:46:16;-9.90;99.90
64869;DHT22;51349;52.424;10.840;2024-01-10T02:51:17;-10.00;99.90
64869;DHT22;51349;52.424;10.840;2024-01-10T02:56:18;-10.00;99.90
64869;DHT22;51349;52.424;10.840;2024-01-10T03:01:18;-10.10;99.90
64869;DHT22;51349;52.424;10.840;2024-01-10T03:06:19;-10.10;99.90
64869;DHT22;51349;52.424;10.840;2024-01-10T03:11:20;-10.20;99.90
64869;DHT22;51349;52.424;10.840;2024-01-10T03:16:20;-10.20;99.90
64869;DHT22;51349;52.424;10.840;2024-01-10T03:21:21;-10.30;99.90
64869;DHT22;51349;52.424;10.840;2024-01-10T03:26:25;-10.40;99.90
64869;DHT22;51349;52.424;10.840;2024-01-10T03:31:28;-10.50;99.90
64869;DHT22;51349;52.424;10.840;2024-01-10T03:36:29;-10.40;99.90
64869;DHT22;51349;52.424;10.840;2024-01-10T03:41:30;-10.50;99.90
64869;DHT22;51349;52.424;10.840;2024-01-10T03:46:30;-10.50;99.90
64869;DHT22;51349;52.424;10.840;2024-01-10T03:51:31;-10.50;99.90
64869;DHT22;51349;52.424;10.840;2024-01-10T03:56:32;-10.50;99.90
64869;DHT22;51349;52.424;10.840;2024-01-10T04:01:32;-10.50;99.90
64869;DHT22;51349;52.424;10.840;2024-01-10T04:06:33;-10.50;99.90
64869;DHT22;51349;52.424;10.840;2024-01-10T04:11:35;-10.70;99.90
64869;DHT22;51349;52.424;10.840;2024-01-10T04:16:36;-10.60;99.90
64869;DHT22;51349;52.424;10.840;2024-01-10T04:21:36;-10.60;99.90
64869;DHT22;51349;52.424;10.840;2024-01-10T04:26:37;-10.60;99.90
64869;DHT22;51349;52.424;10.840;2024-01-10T04:31:38;-10.80;99.90
64869;DHT22;51349;52.424;10.840;2024-01-10T04:36:39;-10.60;99.90
64869;DHT22;51349;52.424;10.840;2024-01-10T04:41:39;-10.60;99.90
64869;DHT22;51349;52.424;10.840;2024-01-10T04:46:40;-10.70;99.90
64869;DHT22;51349;52.424;10.840;2024-01-10T04:51:41;-10.80;99.90
64869;DHT22;51349;52.424;10.840;2024-01-10T04:56:43;-10.70;99.90
64869;DHT22;51349;52.424;10.840;2024-01-10T05:01:43;-10.80;99.90
64869;DHT22;51349;52.424;10.840;2024-01-10T05:06:44;-10.90;99.90
64869;DHT22;51349;52.424;10.840;2024-01-10T05:11:45;-10.90;99.90
64869;DHT22;51349;52.424;10.840;2024-01-10T05:16:51;-10.90;99.90
64869;DHT22;51349;52.424;10.840;2024-01-10T05:21:53;-10.90;99.90
64869;DHT22;51349;52.424;10.840;2024-01-10T05:26:55;-11.00;99.90
64869;DHT22;51349;52.424;10.840;2024-01-10T05:31:57;-11.10;99.90
64869;DHT22;51349;52.424;10.840;2024-01-10T05:36:58;-11.00;99.90
64869;DHT22;51349;52.424;10.840;2024-01-10T05:41:58;-11.10;99.90
64869;DHT22;51349;52.424;10.840;2024-01-10T05:46:59;-11.10;99.90
64869;DHT22;51349;52.424;10.840;2024-01-10T05:52:00;-11.10;99.90
64869;DHT22;51349;52.424;10.840;2024-01-10T05:57:00;-11.10;99.90
64869;DHT22;51349;52.424;10.840;2024-01-10T06:02:03;-11.20;99.90
64869;DHT22;51349;52.424;10.840;2024-01-10T06:07:04;-11.20;99.90
64869;DHT22;51349;52.424;10.840;2024-01-10T06:12:05;-11.30;99.90
64869;DHT22;51349;52.424;10.840;2024-01-10T06:17:06;-11.20;99.90
64869;DHT22;51349;52.424;10.840;2024-01-10T06:22:07;-11.10;99.90
64869;DHT22;51349;52.424;10.840;2024-01-10T06:27:07;-11.10;99.90
64869;DHT22;51349;52.424;10.840;2024-01-10T06:32:08;-11.20;99.90
64869;DHT22;51349;52.424;10.840;2024-01-10T06:37:10;-11.20;99.90
64869;DHT22;51349;52.424;10.840;2024-01-10T06:42:10;-11.20;99.90
64869;DHT22;51349;52.424;10.840;2024-01-10T06:47:12;-11.10;99.90
64869;DHT22;51349;52.424;10.840;2024-01-10T06:52:13;-11.10;99.90
64869;DHT22;51349;52.424;10.840;2024-01-10T06:57:14;-11.10;99.90
64869;DHT22;51349;52.424;10.840;2024-01-10T07:02:15;-10.70;99.90
64869;DHT22;51349;52.424;10.840;2024-01-10T07:07:15;-10.90;99.90
64869;DHT22;51349;52.424;10.840;2024-01-10T07:12:17;-11.00;99.90
64869;DHT22;51349;52.424;10.840;2024-01-10T07:17:18;-10.90;99.90
64869;DHT22;51349;52.424;10.840;2024-01-10T07:22:19;-10.80;99.90
64869;DHT22;51349;52.424;10.840;2024-01-10T07:27:20;-10.80;99.90
64869;DHT22;51349;52.424;10.840;2024-01-10T07:32:20;-10.80;99.90
64869;DHT22;51349;52.424;10.840;2024-01-10T07:37:21;-10.70;99.90
64869;DHT22;51349;52.424;10.840;2024-01-10T07:42:23;-10.60;99.90
64869;DHT22;51349;52.424;10.840;2024-01-10T07:47:24;-10.70;99.90
64869;DHT22;51349;52.424;10.840;2024-01-10T07:52:24;-10.70;99.90
64869;DHT22;51349;52.424;10.840;2024-01-10T07:57:26;-10.60;99.90
64869;DHT22;51349;52.424;10.840;2024-01-10T08:02:27;-10.60;99.90
64869;DHT22;51349;52.424;10.840;2024-01-10T08:07:28;-10.50;99.90
64869;DHT22;51349;52.424;10.840;2024-01-10T08:12:28;-10.40;99.90
64869;DHT22;51349;52.424;10.840;2024-01-10T08:17:29;-10.50;99.90
64869;DHT22;51349;52.424;10.840;2024-01-10T08:22:30;-10.50;99.90
64869;DHT22;51349;52.424;10.840;2024-01-10T08:27:30;-10.40;99.90
64869;DHT22;51349;52.424;10.840;2024-01-10T08:32:32;-10.40;99.90
64869;DHT22;51349;52.424;10.840;2024-01-10T08:37:33;-10.30;99.90
64869;DHT22;51349;52.424;10.840;2024-01-10T08:42:34;-10.20;99.90
64869;DHT22;51349;52.424;10.840;2024-01-10T08:47:35;-9.90;99.90
64869;DHT22;51349;52.424;10.840;2024-01-10T08:52:37;-9.90;99.90
64869;DHT22;51349;52.424;10.840;2024-01-10T08:57:38;-9.60;99.90
64869;DHT22;51349;52.424;10.840;2024-01-10T09:02:38;-9.40;99.90
64869;DHT22;51349;52.424;10.840;2024-01-10T09:07:39;-9.20;99.90
64869;DHT22;51349;52.424;10.840;2024-01-10T09:12:41;-9.00;99.90
64869;DHT22;51349;52.424;10.840;2024-01-10T09:17:46;-8.90;99.90
64869;DHT22;51349;52.424;10.840;2024-01-10T09:22:47;-8.80;99.90
64869;DHT22;51349;52.424;10.840;2024-01-10T09:27:47;-8.60;99.90
64869;DHT22;51349;52.424;10.840;2024-01-10T09:32:48;-8.40;99.90
64869;DHT22;51349;52.424;10.840;2024-01-10T09:37:49;-7.80;99.90
64869;DHT22;51349;52.424;10.840;2024-01-10T09:42:50;-7.30;99.90
64869;DHT22;51349;52.424;10.840;2024-01-10T09:47:56;-6.70;99.90
64869;DHT22;51349;52.424;10.840;2024-01-10T09:53:07;-6.10;99.90
64869;DHT22;51349;52.424;10.840;2024-01-10T09:58:08;-5.80;99.90
64869;DHT22;51349;52.424;10.840;2024-01-10T10:03:11;-5.20;99.90
64869;DHT22;51349;52.424;10.840;2024-01-10T10:08:14;-4.20;99.90
64869;DHT22;51349;52.424;10.840;2024-01-10T10:13:26;-3.10;99.90
64869;DHT22;51349;52.424;10.840;2024-01-10T10:18:31;-2.70;99.90
64869;DHT22;51349;52.424;10.840;2024-01-10T10:23:32;-2.40;99.90
64869;DHT22;51349;52.424;10.840;2024-01-10T10:28:33;-1.20;99.90
64869;DHT22;51349;52.424;10.840;2024-01-10T10:33:34;-0.20;99.90
64869;DHT22;51349;52.424;10.840;2024-01-10T10:38:36;-0.40;99.90
64869;DHT22;51349;52.424;10.840;2024-01-10T10:43:40;-2.00;99.90
64869;DHT22;51349;52.424;10.840;2024-01-10T10:48:42;-3.60;99.90
64869;DHT22;51349;52.424;10.840;2024-01-10T10:53:44;-4.30;99.90
64869;DHT22;51349;52.424;10.840;2024-01-10T10:58:46;-4.20;99.90
64869;DHT22;51349;52.424;10.840;2024-01-10T11:03:47;-4.40;99.90
64869;DHT22;51349;52.424;10.840;2024-01-10T11:09:00;-4.40;99.90
64869;DHT22;51349;52.424;10.840;2024-01-10T11:24:25;-3.90;99.90
64869;DHT22;51349;52.424;10.840;2024-01-10T11:29:28;-2.20;99.90
64869;DHT22;51349;52.424;10.840;2024-01-10T11:34:30;-0.20;99.90
64869;DHT22;51349;52.424;10.840;2024-01-10T11:39:30;1.90;99.90
64869;DHT22;51349;52.424;10.840;2024-01-10T11:44:31;3.20;99.90
64869;DHT22;51349;52.424;10.840;2024-01-10T11:49:33;4.10;99.90
64869;DHT22;51349;52.424;10.840;2024-01-10T11:54:43;4.30;99.90
64869;DHT22;51349;52.424;10.840;2024-01-10T11:59:45;5.90;99.90
64869;DHT22;51349;52.424;10.840;2024-01-10T12:04:46;5.80;99.40
64869;DHT22;51349;52.424;10.840;2024-01-10T12:09:48;6.80;97.40
64869;DHT22;51349;52.424;10.840;2024-01-10T12:14:50;7.50;98.80
64869;DHT22;51349;52.424;10.840;2024-01-10T12:19:52;6.30;94.50
64869;DHT22;51349;52.424;10.840;2024-01-10T12:24:53;7.00;96.70
64869;DHT22;51349;52.424;10.840;2024-01-10T12:29:54;5.80;90.30
64869;DHT22;51349;52.424;10.840;2024-01-10T12:35:01;5.00;90.20
64869;DHT22;51349;52.424;10.840;2024-01-10T12:40:02;5.00;91.90
64869;DHT22;51349;52.424;10.840;2024-01-10T12:45:05;4.90;91.90
64869;DHT22;51349;52.424;10.840;2024-01-10T12:50:07;3.40;92.20
64869;DHT22;51349;52.424;10.840;2024-01-10T12:55:09;2.60;94.70
64869;DHT22;51349;52.424;10.840;2024-01-10T13:00:10;3.20;94.50
64869;DHT22;51349;52.424;10.840;2024-01-10T13:05:14;3.50;94.50
64869;DHT22;51349;52.424;10.840;2024-01-10T13:10:15;3.30;94.40
64869;DHT22;51349;52.424;10.840;2024-01-10T13:15:16;2.30;94.40
64869;DHT22;51349;52.424;10.840;2024-01-10T13:20:17;1.90;96.10
64869;DHT22;51349;52.424;10.840;2024-01-10T13:25:18;1.20;96.70
64869;DHT22;51349;52.424;10.840;2024-01-10T13:30:21;2.10;99.10
64869;DHT22;51349;52.424;10.840;2024-01-10T13:35:21;1.90;99.30
64869;DHT22;51349;52.424;10.840;2024-01-10T13:40:23;1.40;98.80
64869;DHT22;51349;52.424;10.840;2024-01-10T13:45:25;0.80;98.40
64869;DHT22;51349;52.424;10.840;2024-01-10T13:50:27;0.20;98.30
64869;DHT22;51349;52.424;10.840;2024-01-10T13:55:28;-0.10;99.40
64869;DHT22;51349;52.424;10.840;2024-01-10T14:00:29;-0.50;99.90
64869;DHT22;51349;52.424;10.840;2024-01-10T14:05:30;-0.90;99.90
64869;DHT22;51349;52.424;10.840;2024-01-10T14:10:31;-1.30;99.90
64869;DHT22;51349;52.424;10.840;2024-01-10T14:15:31;-1.40;99.90
64869;DHT22;51349;52.424;10.840;2024-01-10T14:20:32;-1.60;99.90
64869;DHT22;51349;52.424;10.840;2024-01-10T14:25:33;-1.70;99.90
64869;DHT22;51349;52.424;10.840;2024-01-10T14:30:33;-2.00;99.90
64869;DHT22;51349;52.424;10.840;2024-01-10T14:35:34;-2.20;99.90
64869;DHT22;51349;52.424;10.840;2024-01-10T14:40:35;-2.20;99.90
64869;DHT22;51349;52.424;10.840;2024-01-10T14:45:36;-2.40;99.90
64869;DHT22;51349;52.424;10.840;2024-01-10T14:50:38;-2.70;99.90
64869;DHT22;51349;52.424;10.840;2024-01-10T14:55:38;-2.80;99.90
64869;DHT22;51349;52.424;10.840;2024-01-10T15:00:39;-2.90;99.90
64869;DHT22;51349;52.424;10.840;2024-01-10T15:05:43;-3.10;99.90
64869;DHT22;51349;52.424;10.840;2024-01-10T15:10:44;-3.20;99.90
64869;DHT22;51349;52.424;10.840;2024-01-10T15:15:45;-3.20;99.90
64869;DHT22;51349;52.424;10.840;2024-01-10T15:20:46;-3.40;99.90
64869;DHT22;51349;52.424;10.840;2024-01-10T15:25:47;-3.50;99.90
64869;DHT22;51349;52.424;10.840;2024-01-10T15:30:48;-3.60;99.90
64869;DHT22;51349;52.424;10.840;2024-01-10T15:35:48;-3.70;99.90
64869;DHT22;51349;52.424;10.840;2024-01-10T15:40:49;-3.80;99.90
64869;DHT22;51349;52.424;10.840;2024-01-10T15:45:50;-4.00;99.90
64869;DHT22;51349;52.424;10.840;2024-01-10T15:50:51;-4.10;99.90
64869;DHT22;51349;52.424;10.840;2024-01-10T15:55:51;-4.30;99.90
64869;DHT22;51349;52.424;10.840;2024-01-10T16:00:52;-4.40;99.90
64869;DHT22;51349;52.424;10.840;2024-01-10T16:05:53;-4.40;99.90
64869;DHT22;51349;52.424;10.840;2024-01-10T16:10:54;-4.50;99.90
64869;DHT22;51349;52.424;10.840;2024-01-10T16:15:55;-4.60;99.90
64869;DHT22;51349;52.424;10.840;2024-01-10T16:20:56;-4.70;99.90
64869;DHT22;51349;52.424;10.840;2024-01-10T16:25:57;-4.80;99.90
64869;DHT22;51349;52.424;10.840;2024-01-10T16:30:58;-4.80;99.90
64869;DHT22;51349;52.424;10.840;2024-01-10T16:35:59;-4.90;99.90
64869;DHT22;51349;52.424;10.840;2024-01-10T16:41:00;-5.10;99.90
64869;DHT22;51349;52.424;10.840;2024-01-10T16:46:01;-5.20;99.90
64869;DHT22;51349;52.424;10.840;2024-01-10T16:51:02;-5.30;99.90
64869;DHT22;51349;52.424;10.840;2024-01-10T16:56:04;-5.40;99.90
64869;DHT22;51349;52.424;10.840;2024-01-10T17:01:04;-5.50;99.90
64869;DHT22;51349;52.424;10.840;2024-01-10T17:06:05;-5.70;99.90
64869;DHT22;51349;52.424;10.840;2024-01-10T17:11:06;-5.80;99.90
64869;DHT22;51349;52.424;10.840;2024-01-10T17:16:07;-6.10;99.90
64869;DHT22;51349;52.424;10.840;2024-01-10T17:21:08;-6.20;99.90
64869;DHT22;51349;52.424;10.840;2024-01-10T17:26:09;-6.40;99.90
64869;DHT22;51349;52.424;10.840;2024-01-10T17:31:10;-6.50;99.90
64869;DHT22;51349;52.424;10.840;2024-01-10T17:36:11;-6.50;99.90
64869;DHT22;51349;52.424;10.840;2024-01-10T17:41:11;-6.60;99.90
64869;DHT22;51349;52.424;10.840;2024-01-10T17:46:12;-6.70;99.90
64869;DHT22;51349;52.424;10.840;2024-01-10T17:51:13;-6.80;99.90
64869;DHT22;51349;52.424;10.840;2024-01-10T17:56:20;-6.90;99.90
64869;DHT22;51349;52.424;10.840;2024-01-10T18:01:21;-7.00;99.90
64869;DHT22;51349;52.424;10.840;2024-01-10T18:06:22;-7.10;99.90
64869;DHT22;51349;52.424;10.840;2024-01-10T18:11:23;-7.20;99.90
64869;DHT22;51349;52.424;10.840;2024-01-10T18:16:24;-7.30;99.90
64869;DHT22;51349;52.424;10.840;2024-01-10T18:21:24;-7.30;99.90
64869;DHT22;51349;52.424;10.840;2024-01-10T18:26:25;-7.50;99.90
64869;DHT22;51349;52.424;10.840;2024-01-10T18:31:27;-7.60;99.90
64869;DHT22;51349;52.424;10.840;2024-01-10T18:36:28;-7.60;99.90
64869;DHT22;51349;52.424;10.840;2024-01-10T18:41:30;-7.70;99.90
64869;DHT22;51349;52.424;10.840;2024-01-10T18:46:31;-7.80;99.90
64869;DHT22;51349;52.424;10.840;2024-01-10T18:51:32;-7.90;99.90
64869;DHT22;51349;52.424;10.840;2024-01-10T18:56:33;-8.00;99.90
64869;DHT22;51349;52.424;10.840;2024-01-10T19:01:33;-8.10;99.90
64869;DHT22;51349;52.424;10.840;2024-01-10T19:06:34;-8.10;99.90
64869;DHT22;51349;52.424;10.840;2024-01-10T19:11:35;-8.20;99.90
64869;DHT22;51349;52.424;10.840;2024-01-10T19:16:36;-8.40;99.90
64869;DHT22;51349;52.424;10.840;2024-01-10T19:21:38;-8.40;99.90
64869;DHT22;51349;52.424;10.840;2024-01-10T19:26:39;-8.40;99.90
64869;DHT22;51349;52.424;10.840;2024-01-10T19:31:40;-8.60;99.90
64869;DHT22;51349;52.424;10.840;2024-01-10T19:36:41;-8.60;99.90
64869;DHT22;51349;52.424;10.840;2024-01-10T19:41:42;-8.50;99.90
64869;DHT22;51349;52.424;10.840;2024-01-10T19:46:43;-8.60;99.90
64869;DHT22;51349;52.424;10.840;2024-01-10T19:51:44;-8.60;99.90
64869;DHT22;51349;52.424;10.840;2024-01-10T19:56:45;-8.70;99.90
64869;DHT22;51349;52.424;10.840;2024-01-10T20:01:46;-8.80;99.90
64869;DHT22;51349;52.424;10.840;2024-01-10T20:06:47;-8.80;99.90
64869;DHT22;51349;52.424;10.840;2024-01-10T20:11:48;-8.90;99.90
64869;DHT22;51349;52.424;10.840;2024-01-10T20:16:49;-8.90;99.90
64869;DHT22;51349;52.424;10.840;2024-01-10T20:21:49;-8.80;99.90
64869;DHT22;51349;52.424;10.840;2024-01-10T20:26:50;-8.80;99.90
64869;DHT22;51349;52.424;10.840;2024-01-10T20:31:51;-9.00;99.90
64869;DHT22;51349;52.424;10.840;2024-01-10T20:36:52;-9.10;99.90
64869;DHT22;51349;52.424;10.840;2024-01-10T20:41:52;-9.20;99.90
64869;DHT22;51349;52.424;10.840;2024-01-10T20:46:54;-9.30;99.90
64869;DHT22;51349;52.424;10.840;2024-01-10T20:51:55;-9.30;99.90
64869;DHT22;51349;52.424;10.840;2024-01-10T20:56:56;-9.30;99.90
64869;DHT22;51349;52.424;10.840;2024-01-10T21:01:56;-9.10;99.90
64869;DHT22;51349;52.424;10.840;2024-01-10T21:06:57;-9.20;99.90
64869;DHT22;51349;52.424;10.840;2024-01-10T21:11:59;-9.30;99.90
64869;DHT22;51349;52.424;10.840;2024-01-10T21:17:00;-9.40;99.90
64869;DHT22;51349;52.424;10.840;2024-01-10T21:22:01;-9.50;99.90
64869;DHT22;51349;52.424;10.840;2024-01-10T21:27:02;-9.60;99.90
64869;DHT22;51349;52.424;10.840;2024-01-10T21:32:03;-9.50;99.90
64869;DHT22;51349;52.424;10.840;2024-01-10T21:37:04;-9.60;99.90
64869;DHT22;51349;52.424;10.840;2024-01-10T21:42:05;-9.60;99.90
64869;DHT22;51349;52.424;10.840;2024-01-10T21:47:06;-9.70;99.90
64869;DHT22;51349;52.424;10.840;2024-01-10T21:52:07;-9.60;99.90
64869;DHT22;51349;52.424;10.840;2024-01-10T21:57:09;-9.70;99.90
64869;DHT22;51349;52.424;10.840;2024-01-10T22:02:10;-9.70;99.90
64869;DHT22;51349;52.424;10.840;2024-01-10T22:07:11;-9.80;99.90
64869;DHT22;51349;52.424;10.840;2024-01-10T22:12:12;-9.80;99.90
64869;DHT22;51349;52.424;10.840;2024-01-10T22:17:13;-9.90;99.90
64869;DHT22;51349;52.424;10.840;2024-01-10T22:22:13;-9.90;99.90
64869;DHT22;51349;52.424;10.840;2024-01-10T22:27:15;-9.90;99.90
64869;DHT22;51349;52.424;10.840;2024-01-10T22:32:17;-9.80;99.90
64869;DHT22;51349;52.424;10.840;2024-01-10T22:37:18;-9.50;99.90
64869;DHT22;51349;52.424;10.840;2024-01-10T22:42:19;-9.50;99.90
64869;DHT22;51349;52.424;10.840;2024-01-10T22:47:20;-9.60;99.90
64869;DHT22;51349;52.424;10.840;2024-01-10T22:52:20;-9.60;99.90
64869;DHT22;51349;52.424;10.840;2024-01-10T22:57:21;-9.60;99.90
64869;DHT22;51349;52.424;10.840;2024-01-10T23:02:22;-9.70;99.90
64869;DHT22;51349;52.424;10.840;2024-01-10T23:07:22;-9.70;99.90
64869;DHT22;51349;52.424;10.840;2024-01-10T23:12:23;-9.80;99.90
64869;DHT22;51349;52.424;10.840;2024-01-10T23:17:24;-9.80;99.90
64869;DHT22;51349;52.424;10.840;2024-01-10T23:22:26;-9.90;99.90
64869;DHT22;51349;52.424;10.840;2024-01-10T23:27:26;-10.00;99.90
64869;DHT22;51349;52.424;10.840;2024-01-10T23:32:27;-10.00;99.90
64869;DHT22;51349;52.424;10.840;2024-01-10T23:37:28;-10.00;99.90
64869;DHT22;51349;52.424;10.840;2024-01-10T23:42:29;-10.00;99.90
64869;DHT22;51349;52.424;10.840;2024-01-10T23:47:29;-10.10;99.90
64869;DHT22;51349;52.424;10.840;2024-01-10T23:52:30;-10.10;99.90
64869;DHT22;51349;52.424;10.840;2024-01-10T23:57:31;-10.00;99.90
